Time;durP1;ratioP1;P1;durP2;ratioP2;P2;SDS_P1;SDS_P2;PMS_P1;PMS_P2;Temp;Humidity;BMP_temperature;BMP_pressure;BME280_temperature;BME280_humidity;BME280_pressure;Samples;Min_cycle;Max_cycle;Signal;HPM_P1;HPM_P2
2023/09/30 00:00:46;;;;;;;;;;;19.40;99.90;;;;;;2603582;54;20824;31
2023/09/30 00:03:25;;;;;;;16.00;7.05;;;19.30;99.90;;;;;;2621977;46;20836;31
2023/09/30 00:06:02;;;;;;;11.82;7.60;;;19.30;99.90;;;;;;2603346;54;20814;31
2023/09/30 00:08:44;;;;;;;13.32;6.88;;;19.30;99.90;;;;;;2603342;54;20062;31
2023/09/30 00:13:58;;;;;;;12.77;6.47;;;19.20;99.90;;;;;;2603454;54;20072;31
2023/09/30 00:16:34;;;;;;;12.27;7.13;;;19.30;99.90;;;;;;2603564;54;20034;31
2023/09/30 00:19:09;;;;;;;;;;;19.20;99.90;;;;;;2603435;54;20939;31
2023/09/30 00:21:48;;;;;;;13.77;5.97;;;19.30;99.90;;;;;;2603556;54;21145;31
2023/09/30 00:24:30;;;;;;;8.87;6.70;;;19.20;99.90;;;;;;2603440;54;20049;31
2023/09/30 00:27:05;;;;;;;11.75;7.05;;;19.20;99.90;;;;;;2701657;39;20424;31
2023/09/30 00:29:43;;;;;;;;;;;19.20;99.90;;;;;;2603486;54;20033;31
2023/09/30 00:32:21;;;;;;;11.37;6.23;;;19.20;99.90;;;;;;2603294;54;19939;31
2023/09/30 00:34:57;;;;;;;11.18;6.25;;;19.20;99.90;;;;;;2603331;54;20242;31
2023/09/30 00:37:35;;;;;;;9.90;7.13;;;19.20;99.90;;;;;;2603370;54;20046;31
2023/09/30 00:40:11;;;;;;;9.98;6.78;;;19.20;99.90;;;;;;2621700;46;20042;31
2023/09/30 00:42:54;;;;;;;10.53;6.17;;;19.10;99.90;;;;;;2621733;46;20033;31
2023/09/30 00:45:31;;;;;;;13.05;6.05;;;19.20;99.90;;;;;;2720229;39;20456;31
2023/09/30 00:48:15;;;;;;;8.88;6.68;;;19.10;99.90;;;;;;2603326;54;20604;31
2023/09/30 00:50:50;;;;;;;10.60;6.55;;;19.10;99.90;;;;;;2603378;54;20149;31
2023/09/30 00:53:28;;;;;;;10.30;6.65;;;19.10;99.90;;;;;;2603376;54;20026;31
2023/09/30 00:56:04;;;;;;;11.48;6.45;;;19.10;99.90;;;;;;2621766;46;20867;31
2023/09/30 00:58:44;;;;;;;;;;;19.10;99.90;;;;;;2621509;46;20026;31
2023/09/30 01:01:20;;;;;;;14.25;6.60;;;19.20;99.90;;;;;;2621943;46;19990;31
2023/09/30 01:03:56;;;;;;;7.97;5.78;;;19.10;99.90;;;;;;2603131;54;20585;31
2023/09/30 01:06:32;;;;;;;10.07;5.90;;;19.20;99.90;;;;;;2602873;54;20962;31
2023/09/30 01:09:09;;;;;;;13.00;6.30;;;19.10;99.90;;;;;;2603113;54;21476;31
2023/09/30 01:11:45;;;;;;;9.43;5.70;;;19.10;99.90;;;;;;2603340;54;20027;31
2023/09/30 01:14:34;;;;;;;9.00;6.35;;;19.10;99.90;;;;;;2621638;46;20846;31
2023/09/30 01:17:13;;;;;;;10.98;6.32;;;19.10;99.90;;;;;;2603181;54;20053;31
2023/09/30 01:19:49;;;;;;;7.88;5.53;;;19.10;99.90;;;;;;2603196;54;20030;31
2023/09/30 01:22:30;;;;;;;8.93;5.47;;;19.10;99.90;;;;;;2602940;54;20080;31
2023/09/30 01:25:09;;;;;;;9.93;6.68;;;19.10;99.90;;;;;;2603138;54;20137;31
2023/09/30 01:27:46;;;;;;;9.75;6.00;;;19.10;99.90;;;;;;2602671;54;20033;31
2023/09/30 01:33:01;;;;;;;8.93;5.88;;;19.10;99.90;;;;;;2618051;46;20085;31
2023/09/30 01:35:37;;;;;;;8.05;6.00;;;19.10;99.90;;;;;;2603046;54;20033;31
2023/09/30 01:38:15;;;;;;;;;;;19.10;99.90;;;;;;2603262;54;20034;31
2023/09/30 01:40:54;;;;;;;12.07;5.78;;;19.20;99.90;;;;;;2621991;47;19956;31
2023/09/30 01:43:44;;;;;;;10.60;6.40;;;19.20;99.90;;;;;;2621845;47;20120;31
2023/09/30 01:46:19;;;;;;;7.53;5.77;;;19.20;99.90;;;;;;2603160;54;20027;31
2023/09/30 01:48:55;;;;;;;9.13;5.65;;;19.20;99.90;;;;;;2602697;54;20117;31
2023/09/30 01:51:32;;;;;;;9.65;5.55;;;19.20;99.90;;;;;;2602996;54;20038;31
2023/09/30 01:54:14;;;;;;;10.70;5.47;;;19.20;99.90;;;;;;2603007;54;20787;31
2023/09/30 01:56:51;;;;;;;9.43;5.25;;;19.20;99.90;;;;;;2602962;54;20073;31
2023/09/30 01:59:30;;;;;;;9.75;5.00;;;19.20;99.90;;;;;;2602983;54;20101;31
2023/09/30 02:02:12;;;;;;;8.68;5.25;;;19.20;99.90;;;;;;2609119;47;20571;31
2023/09/30 02:04:53;;;;;;;9.30;4.88;;;19.20;99.90;;;;;;2621184;47;20022;31
2023/09/30 02:10:13;;;;;;;7.47;4.65;;;19.20;99.90;;;;;;2602308;54;21831;31
2023/09/30 02:12:49;;;;;;;9.30;4.90;;;19.20;99.90;;;;;;2701125;39;20193;31
2023/09/30 02:15:31;;;;;;;5.82;4.40;;;19.20;99.90;;;;;;2621324;47;20097;31
2023/09/30 02:18:12;;;;;;;8.33;4.30;;;19.20;99.90;;;;;;2602741;54;20077;31
2023/09/30 02:20:54;;;;;;;6.28;4.25;;;19.20;99.90;;;;;;2603178;54;20026;31
2023/09/30 02:23:29;;;;;;;7.50;4.63;;;19.20;99.90;;;;;;2603744;54;20700;31
2023/09/30 02:26:09;;;;;;;7.50;4.20;;;19.20;99.90;;;;;;2603756;54;20026;31
2023/09/30 02:28:48;;;;;;;6.07;4.10;;;19.20;99.90;;;;;;2607771;46;20045;31
2023/09/30 02:31:24;;;;;;;7.25;4.13;;;19.20;99.90;;;;;;2603555;54;20791;31
2023/09/30 02:34:04;;;;;;;8.55;4.22;;;19.30;99.90;;;;;;2702378;39;20485;31
2023/09/30 02:36:42;;;;;;;6.93;4.47;;;19.30;99.90;;;;;;2603604;54;20061;31
2023/09/30 02:39:19;;;;;;;7.57;3.97;;;19.30;99.90;;;;;;2603730;54;20810;31
2023/09/30 02:42:01;;;;;;;8.57;4.50;;;19.30;99.90;;;;;;2602964;54;21139;31
2023/09/30 02:44:37;;;;;;;5.20;3.95;;;19.30;99.90;;;;;;2603825;54;20037;31
2023/09/30 02:47:13;;;;;;;5.97;3.88;;;19.30;99.90;;;;;;2603120;54;20034;31
2023/09/30 02:49:59;;;;;;;5.57;3.58;;;19.30;99.90;;;;;;2603547;54;20034;31
2023/09/30 02:52:36;;;;;;;5.70;3.90;;;19.30;99.90;;;;;;2603568;54;20100;31
2023/09/30 02:55:13;;;;;;;6.05;3.97;;;19.30;99.90;;;;;;2622406;46;20247;31
2023/09/30 02:57:53;;;;;;;6.10;3.40;;;19.30;99.90;;;;;;2616239;46;20026;31
2023/09/30 03:00:39;;;;;;;5.75;3.60;;;19.30;99.90;;;;;;2603465;54;20930;31
2023/09/30 03:03:15;;;;;;;7.20;3.40;;;19.30;99.90;;;;;;2721029;39;21062;31
2023/09/30 03:05:54;;;;;;;8.77;4.13;;;19.30;99.90;;;;;;2621840;46;20051;31
2023/09/30 03:08:31;;;;;;;9.70;3.97;;;19.30;99.90;;;;;;2602849;54;20814;31
2023/09/30 03:11:07;;;;;;;7.00;3.45;;;19.30;99.90;;;;;;2617053;46;20030;31
2023/09/30 03:13:54;;;;;;;7.25;4.07;;;19.20;99.90;;;;;;2720350;39;21457;31
2023/09/30 03:19:08;;;;;;;8.45;3.75;;;19.20;99.90;;;;;;2622129;46;20027;31
2023/09/30 03:21:50;;;;;;;7.05;3.90;;;19.20;99.90;;;;;;2603435;54;20022;31
2023/09/30 03:24:31;;;;;;;5.82;3.50;;;19.10;99.90;;;;;;2622034;46;20033;31
2023/09/30 03:27:09;;;;;;;7.50;3.43;;;19.10;99.90;;;;;;2701241;39;20504;31
2023/09/30 03:29:49;;;;;;;5.22;3.80;;;19.00;99.90;;;;;;2602674;54;20900;31
2023/09/30 03:32:41;;;;;;;7.72;3.45;;;19.00;99.90;;;;;;2603431;54;20875;31
2023/09/30 03:35:21;;;;;;;5.17;4.00;;;19.00;99.90;;;;;;2603746;54;20026;31
2023/09/30 03:37:56;;;;;;;8.63;3.70;;;19.00;99.90;;;;;;2603696;54;20243;31
2023/09/30 03:40:33;;;;;;;7.45;4.22;;;18.90;99.90;;;;;;2602597;54;20828;31
2023/09/30 03:43:14;;;;;;;7.05;3.53;;;18.90;99.90;;;;;;2603537;54;20881;31
2023/09/30 03:45:57;;;;;;;5.70;3.65;;;18.90;99.90;;;;;;2605380;46;20046;31
2023/09/30 03:48:38;;;;;;;6.95;3.80;;;18.90;99.90;;;;;;2701328;39;21481;31
2023/09/30 03:51:15;;;;;;;6.43;3.30;;;18.80;99.90;;;;;;2701336;39;22409;31
2023/09/30 03:53:50;;;;;;;5.38;3.47;;;18.80;99.90;;;;;;2614073;46;20589;31
2023/09/30 03:56:25;;;;;;;8.05;3.75;;;18.80;99.90;;;;;;2603427;54;20919;31
2023/09/30 03:59:03;;;;;;;5.75;3.42;;;18.80;99.90;;;;;;2603343;54;20034;31
2023/09/30 04:01:44;;;;;;;6.15;3.97;;;18.80;99.90;;;;;;2616382;46;20042;31
2023/09/30 04:04:29;;;;;;;6.95;3.65;;;18.80;99.90;;;;;;2602175;54;20029;31
2023/09/30 04:07:09;;;;;;;7.55;3.38;;;18.80;99.90;;;;;;2621652;46;20959;31
2023/09/30 04:09:47;;;;;;;8.25;3.85;;;18.80;99.90;;;;;;2603339;54;19978;31
2023/09/30 04:12:25;;;;;;;7.47;3.88;;;18.70;99.90;;;;;;2603299;54;20599;31
2023/09/30 04:15:01;;;;;;;5.63;3.47;;;18.70;99.90;;;;;;2621556;46;20140;31
2023/09/30 04:17:39;;;;;;;8.67;3.23;;;18.60;99.90;;;;;;2602730;54;22472;31
2023/09/30 04:20:26;;;;;;;7.53;3.92;;;18.60;99.90;;;;;;2603157;54;20049;31
2023/09/30 04:23:03;;;;;;;7.18;3.35;;;18.60;99.90;;;;;;2719846;39;20432;31
2023/09/30 04:25:38;;;;;;;5.93;2.97;;;18.50;99.90;;;;;;2603200;54;20026;31
2023/09/30 04:28:20;;;;;;;8.88;4.13;;;18.50;99.90;;;;;;2603391;54;20031;31
2023/09/30 04:30:56;;;;;;;6.78;3.30;;;18.50;99.90;;;;;;2603385;54;20803;31
2023/09/30 04:33:35;;;;;;;6.60;3.65;;;18.50;99.90;;;;;;2603423;54;20854;31
2023/09/30 04:36:15;;;;;;;7.43;3.28;;;18.50;99.90;;;;;;2621293;46;20022;31
2023/09/30 04:38:51;;;;;;;8.70;4.30;;;18.50;99.90;;;;;;2617578;46;20836;31
2023/09/30 04:41:30;;;;;;;5.90;3.15;;;18.40;99.90;;;;;;2603141;54;20046;31
2023/09/30 04:44:09;;;;;;;6.07;3.33;;;18.50;99.90;;;;;;2603261;54;20057;31
2023/09/30 04:46:48;;;;;;;7.35;3.28;;;18.50;99.90;;;;;;2602408;54;20018;31
2023/09/30 04:49:27;;;;;;;6.30;3.22;;;18.50;99.90;;;;;;2602504;54;22411;31
2023/09/30 04:52:07;;;;;;;6.13;3.00;;;18.50;99.90;;;;;;2602626;54;20542;31
2023/09/30 04:54:44;;;;;;;8.55;4.03;;;18.50;99.90;;;;;;2603180;54;20095;31
2023/09/30 04:57:22;;;;;;;7.47;3.78;;;18.50;99.90;;;;;;2603280;54;20037;31
2023/09/30 04:59:59;;;;;;;6.88;3.33;;;18.50;99.90;;;;;;2603242;54;20057;31
2023/09/30 05:02:37;;;;;;;4.65;3.13;;;18.50;99.90;;;;;;2603183;54;20089;31
2023/09/30 05:05:16;;;;;;;5.18;3.45;;;18.50;99.90;;;;;;2621512;46;20023;31
2023/09/30 05:07:51;;;;;;;5.78;3.30;;;18.50;99.90;;;;;;2621439;46;20109;31
2023/09/30 05:10:30;;;;;;;7.00;3.70;;;18.50;99.90;;;;;;2791387;31;20607;31
2023/09/30 05:13:06;;;;;;;10.43;3.35;;;18.50;99.90;;;;;;2602347;54;21447;31
2023/09/30 05:15:44;;;;;;;5.97;3.57;;;18.50;99.90;;;;;;2602951;54;20070;31
2023/09/30 05:18:23;;;;;;;5.32;3.20;;;18.50;99.90;;;;;;2603441;54;20254;31
2023/09/30 05:21:06;;;;;;;7.73;3.53;;;18.60;99.90;;;;;;2607530;46;20860;31
2023/09/30 05:23:45;;;;;;;6.50;3.55;;;18.60;99.90;;;;;;2602981;54;20281;31
2023/09/30 05:26:20;;;;;;;6.05;3.55;;;18.60;99.90;;;;;;2603074;54;20874;31
2023/09/30 05:28:56;;;;;;;8.82;3.30;;;18.60;99.90;;;;;;2602861;54;20114;31
2023/09/30 05:31:34;;;;;;;6.20;3.60;;;18.60;99.90;;;;;;2603132;54;20899;31
2023/09/30 05:34:19;;;;;;;5.40;3.25;;;18.60;99.90;;;;;;2621405;46;20708;31
2023/09/30 05:37:00;;;;;;;8.77;3.70;;;18.60;99.90;;;;;;2603276;54;20072;31
2023/09/30 05:39:40;;;;;;;5.82;3.40;;;18.60;99.90;;;;;;2603018;54;20906;31
2023/09/30 05:42:18;;;;;;;6.70;3.65;;;18.70;99.90;;;;;;2701407;39;20528;31
2023/09/30 05:44:56;;;;;;;8.70;3.50;;;18.70;99.90;;;;;;2602955;54;20031;31
2023/09/30 05:47:32;;;;;;;6.35;3.10;;;18.70;99.90;;;;;;2603241;54;20050;31
2023/09/30 05:50:14;;;;;;;6.45;3.40;;;18.70;99.90;;;;;;2602314;54;20018;31
2023/09/30 05:52:56;;;;;;;7.20;3.13;;;18.70;99.90;;;;;;2621608;47;20058;31
2023/09/30 05:55:36;;;;;;;5.38;2.85;;;18.70;99.90;;;;;;2603859;54;19952;31
2023/09/30 05:58:16;;;;;;;8.15;3.80;;;18.70;99.90;;;;;;2621294;46;19937;31
2023/09/30 06:00:52;;;;;;;6.60;2.83;;;18.70;99.90;;;;;;2603664;54;20873;31
2023/09/30 06:03:32;;;;;;;7.97;2.70;;;18.70;99.90;;;;;;2603795;54;20835;31
2023/09/30 06:06:42;;;;;;;5.17;2.60;;;18.70;99.90;;;;;;2603925;54;20031;31
2023/09/30 06:09:25;;;;;;;2.80;1.75;;;18.60;99.90;;;;;;2603499;54;20873;31
2023/09/30 06:12:03;;;;;;;3.20;1.50;;;18.60;99.90;;;;;;2603943;54;19934;31
2023/09/30 06:14:40;;;;;;;4.45;1.35;;;18.60;99.90;;;;;;2702141;39;20478;31
2023/09/30 06:17:18;;;;;;;6.25;1.40;;;18.50;99.90;;;;;;2603711;54;20026;31
2023/09/30 06:19:54;;;;;;;3.05;1.10;;;18.40;99.90;;;;;;2603786;54;20034;31
2023/09/30 06:22:34;;;;;;;3.13;0.95;;;18.40;99.90;;;;;;2621411;46;19935;31
2023/09/30 06:25:16;;;;;;;2.73;0.77;;;18.30;99.90;;;;;;2602841;54;20062;31
2023/09/30 06:27:52;;;;;;;3.58;0.60;;;18.30;99.90;;;;;;2622175;46;20030;31
2023/09/30 06:30:41;;;;;;;4.35;0.70;;;18.30;99.90;;;;;;2702268;39;20462;31
2023/09/30 06:33:21;;;;;;;3.40;0.63;;;18.20;99.90;;;;;;2603672;54;20037;31
2023/09/30 06:38:31;;;;;;;2.50;0.60;;;18.00;99.90;;;;;;2622266;46;20254;31
2023/09/30 06:41:13;;;;;;;3.77;0.67;;;18.00;99.90;;;;;;2603497;54;20045;31
2023/09/30 06:43:49;;;;;;;1.58;0.60;;;18.00;99.90;;;;;;2603717;54;20796;31
2023/09/30 06:46:24;;;;;;;2.80;1.00;;;18.00;99.90;;;;;;2702141;39;20451;31
2023/09/30 06:49:00;;;;;;;2.67;1.00;;;17.90;99.90;;;;;;2622154;46;20026;31
2023/09/30 06:51:37;;;;;;;3.75;0.80;;;17.90;99.90;;;;;;2621884;46;20080;31
2023/09/30 06:54:17;;;;;;;1.58;0.85;;;17.90;99.90;;;;;;2603532;54;20034;31
2023/09/30 06:57:00;;;;;;;2.43;0.60;;;17.90;99.90;;;;;;2603582;54;20089;31
2023/09/30 06:59:39;;;;;;;3.50;1.08;;;17.90;99.90;;;;;;2603506;54;20166;31
2023/09/30 07:02:16;;;;;;;8.10;1.75;;;17.90;99.90;;;;;;2622179;46;20851;31
2023/09/30 07:04:54;;;;;;;3.13;1.77;;;17.80;99.90;;;;;;2621698;46;20755;31
2023/09/30 07:07:32;;;;;;;5.00;1.90;;;17.80;99.90;;;;;;2603608;54;20767;31
2023/09/30 07:10:10;;;;;;;3.27;2.27;;;17.70;99.90;;;;;;2621670;46;20027;31
2023/09/30 07:12:48;;;;;;;3.00;2.30;;;17.70;99.90;;;;;;2603670;54;20026;31
2023/09/30 07:15:22;;;;;;;4.03;2.58;;;17.70;99.90;;;;;;2612494;46;22460;31
2023/09/30 07:18:02;;;;;;;4.47;2.30;;;17.70;99.90;;;;;;2621958;46;20031;31
2023/09/30 07:20:40;;;;;;;5.85;2.50;;;17.70;99.90;;;;;;2603693;54;20049;31
2023/09/30 07:23:15;;;;;;;3.20;2.17;;;17.70;99.90;;;;;;2602880;54;20964;31
2023/09/30 07:25:54;;;;;;;6.00;2.70;;;17.70;99.90;;;;;;2621941;46;20054;31
2023/09/30 07:28:36;;;;;;;5.43;2.53;;;17.70;99.90;;;;;;2603750;54;20046;31
2023/09/30 07:31:11;;;;;;;4.70;2.15;;;17.70;99.90;;;;;;2603475;54;20026;31
2023/09/30 07:33:50;;;;;;;3.75;1.88;;;17.60;99.90;;;;;;2603504;54;20038;31
2023/09/30 07:36:32;;;;;;;4.35;2.40;;;17.60;99.90;;;;;;2603525;54;20879;31
2023/09/30 07:39:09;;;;;;;4.43;1.90;;;17.50;99.90;;;;;;2603544;54;20161;31
2023/09/30 07:41:48;;;;;;;7.82;1.70;;;17.50;99.90;;;;;;2603628;54;20585;31
2023/09/30 07:44:29;;;;;;;4.55;1.55;;;17.50;99.90;;;;;;2603288;54;20084;31
2023/09/30 07:47:12;;;;;;;7.38;1.92;;;17.50;99.90;;;;;;2701918;39;20549;31
2023/09/30 07:49:50;;;;;;;3.80;1.10;;;17.40;99.90;;;;;;2602881;54;20053;31
2023/09/30 07:52:26;;;;;;;4.78;1.05;;;17.40;99.90;;;;;;2603578;54;20857;31
2023/09/30 07:55:04;;;;;;;3.58;1.00;;;17.40;99.90;;;;;;2603548;54;20042;31
2023/09/30 07:57:48;;;;;;;7.45;0.95;;;17.30;99.90;;;;;;2603480;54;20081;31
2023/09/30 08:00:45;;;;;;;4.60;0.90;;;17.20;99.90;;;;;;2603426;54;20022;31
2023/09/30 08:03:29;;;;;;;2.17;0.90;;;17.20;99.90;;;;;;2602716;54;20259;31
2023/09/30 08:06:09;;;;;;;3.05;1.10;;;17.30;99.90;;;;;;2607006;46;20030;31
2023/09/30 08:08:55;;;;;;;3.58;0.93;;;17.30;99.90;;;;;;2621908;46;20022;31
2023/09/30 08:11:36;;;;;;;;;;;17.30;99.90;;;;;;2603758;54;20030;31
2023/09/30 08:14:15;;;;;;;8.15;1.33;;;17.40;99.90;;;;;;2621752;46;19942;31
2023/09/30 08:17:21;;;;;;;7.15;1.75;;;17.40;99.90;;;;;;2603094;54;20105;31
2023/09/30 08:20:05;;;;;;;4.35;1.30;;;17.50;99.90;;;;;;2621639;46;20048;31
2023/09/30 08:22:45;;;;;;;4.43;1.60;;;17.70;99.90;;;;;;2603419;54;20045;31
2023/09/30 08:25:24;;;;;;;5.15;1.58;;;17.90;99.90;;;;;;2603266;54;19934;31
2023/09/30 08:28:00;;;;;;;6.32;1.33;;;18.20;99.90;;;;;;2621780;46;20667;31
2023/09/30 08:30:36;;;;;;;4.95;1.10;;;18.50;99.90;;;;;;2603229;54;20782;31
2023/09/30 08:33:21;;;;;;;5.13;1.13;;;18.90;99.90;;;;;;2602667;54;20904;31
2023/09/30 08:36:10;;;;;;;5.30;1.20;;;19.40;99.90;;;;;;2603327;54;20026;31
2023/09/30 08:38:49;;;;;;;2.97;1.27;;;19.60;99.90;;;;;;2603354;54;20916;31
2023/09/30 08:44:03;;;;;;;8.00;2.28;;;19.60;99.90;;;;;;2603112;54;21624;31
2023/09/30 08:46:41;;;;;;;9.05;1.60;;;19.70;99.90;;;;;;2621508;46;20022;31
2023/09/30 08:49:21;;;;;;;4.80;1.58;;;19.70;99.90;;;;;;2603221;54;20930;31
2023/09/30 08:51:59;;;;;;;5.30;1.60;;;19.80;99.90;;;;;;2603344;54;20030;31
2023/09/30 08:54:42;;;;;;;4.88;1.35;;;20.00;99.90;;;;;;2621331;46;20030;31
2023/09/30 08:57:22;;;;;;;3.90;1.13;;;20.30;99.90;;;;;;2603345;54;20895;31
2023/09/30 09:00:03;;;;;;;3.30;1.17;;;20.40;99.90;;;;;;2701191;39;21469;31
2023/09/30 09:02:40;;;;;;;4.13;1.00;;;20.60;99.90;;;;;;2602389;54;20929;31
2023/09/30 09:05:24;;;;;;;2.80;1.10;;;20.90;99.90;;;;;;2710919;39;20561;31
2023/09/30 09:08:03;;;;;;;4.88;1.23;;;20.90;99.90;;;;;;2602909;54;20085;31
2023/09/30 09:10:41;;;;;;;9.43;1.20;;;20.70;99.90;;;;;;2621891;46;20053;31
2023/09/30 09:13:18;;;;;;;3.75;1.00;;;20.60;99.90;;;;;;2603214;54;20093;31
2023/09/30 09:16:09;;;;;;;5.18;1.05;;;20.40;99.90;;;;;;2603177;54;20026;31
2023/09/30 09:18:50;;;;;;;5.63;1.23;;;20.40;99.90;;;;;;2720291;39;20509;31
2023/09/30 09:21:36;;;;;;;4.90;1.23;;;20.40;99.90;;;;;;2701516;39;20484;31
2023/09/30 09:24:14;;;;;;;8.85;2.20;;;20.60;99.90;;;;;;2621723;46;20023;31
2023/09/30 09:26:52;;;;;;;4.03;0.85;;;20.80;99.90;;;;;;2603108;54;20027;31
2023/09/30 09:29:31;;;;;;;4.00;0.90;;;21.00;99.90;;;;;;2619176;47;20030;31
2023/09/30 09:32:16;;;;;;;3.85;0.98;;;21.30;99.90;;;;;;2621804;46;20037;31
2023/09/30 09:35:03;;;;;;;5.37;1.10;;;21.50;99.90;;;;;;2621358;46;20081;31
2023/09/30 09:37:40;;;;;;;4.00;0.90;;;21.70;99.90;;;;;;2603133;54;20030;31
2023/09/30 09:40:25;;;;;;;3.80;1.20;;;21.80;99.90;;;;;;2603076;54;20042;31
2023/09/30 09:43:04;;;;;;;;;;;21.90;99.90;;;;;;2603349;54;20514;31
2023/09/30 09:45:43;;;;;;;6.50;1.63;;;22.10;99.90;;;;;;2701486;39;21417;31
2023/09/30 09:48:19;;;;;;;5.13;0.90;;;22.20;99.90;;;;;;2602294;54;20081;31
2023/09/30 09:51:01;;;;;;;4.72;1.10;;;22.20;99.90;;;;;;2602300;54;20925;31
2023/09/30 09:54:03;;;;;;;2.92;0.65;;;22.10;99.90;;;;;;2602867;54;20048;31
2023/09/30 09:59:52;;;;;;;3.75;0.73;;;22.20;99.90;;;;;;2621468;47;20022;31
2023/09/30 10:02:38;;;;;;;3.73;0.80;;;22.20;99.90;;;;;;2602395;54;20908;31
2023/09/30 10:05:17;;;;;;;2.15;0.63;;;22.10;99.90;;;;;;2603016;54;20917;31
2023/09/30 10:08:03;;;;;;;2.45;0.60;;;22.00;99.90;;;;;;2613218;47;20022;31
2023/09/30 10:10:47;;;;;;;4.00;0.70;;;22.00;99.90;;;;;;2602542;54;20030;31
2023/09/30 10:13:53;;;;;;;2.58;0.68;;;21.90;99.90;;;;;;2602913;54;20596;31
2023/09/30 10:16:55;;;;;;;2.92;0.65;;;22.00;99.90;;;;;;2603004;54;20539;31
2023/09/30 10:19:45;;;;;;;6.55;1.00;;;22.00;99.90;;;;;;2602930;54;20030;31
2023/09/30 10:22:42;;;;;;;2.55;0.90;;;22.00;99.90;;;;;;2621379;47;20563;31
2023/09/30 10:25:46;;;;;;;4.10;0.95;;;22.10;99.90;;;;;;2602805;54;20034;31
2023/09/30 10:28:46;;;;;;;3.13;0.98;;;22.30;99.90;;;;;;2602862;54;21193;31
2023/09/30 10:31:31;;;;;;;4.18;0.98;;;22.30;99.90;;;;;;2602730;54;20881;31
2023/09/30 10:34:33;;;;;;;5.15;1.00;;;22.40;99.90;;;;;;2603056;54;20027;31
2023/09/30 10:37:40;;;;;;;4.00;0.95;;;22.30;99.90;;;;;;2701180;39;20437;31
2023/09/30 10:40:17;;;;;;;3.00;0.90;;;22.20;99.90;;;;;;2603127;54;21243;31
2023/09/30 10:42:57;;;;;;;2.90;0.90;;;22.10;99.90;;;;;;2603717;54;20120;31
2023/09/30 10:45:48;;;;;;;2.92;0.98;;;22.00;99.90;;;;;;2603843;54;20836;31
2023/09/30 10:48:41;;;;;;;5.75;1.10;;;21.80;99.90;;;;;;2603872;54;20034;31
2023/09/30 10:51:20;;;;;;;;;;;21.80;99.90;;;;;;2613170;46;20029;31
2023/09/30 10:54:11;;;;;;;5.10;1.40;;;21.80;99.90;;;;;;2603746;54;20742;31
2023/09/30 10:57:00;;;;;;;4.47;1.15;;;21.70;99.90;;;;;;2603834;54;20053;31
2023/09/30 10:59:37;;;;;;;3.05;1.17;;;21.50;99.90;;;;;;2622189;46;20585;31
2023/09/30 11:02:25;;;;;;;3.15;1.10;;;21.50;99.90;;;;;;2603657;54;20030;31
2023/09/30 11:05:11;;;;;;;4.53;1.58;;;21.40;99.90;;;;;;2603613;54;20082;31
2023/09/30 11:07:54;;;;;;;3.65;0.80;;;21.20;99.90;;;;;;2603769;54;20022;31
2023/09/30 11:10:37;;;;;;;6.90;1.30;;;21.10;99.90;;;;;;2603320;54;20188;31
2023/09/30 11:13:22;;;;;;;8.05;1.40;;;21.00;99.90;;;;;;2603628;54;20046;31
2023/09/30 11:15:57;;;;;;;4.70;1.20;;;20.90;99.90;;;;;;2603501;54;20207;31
2023/09/30 11:18:33;;;;;;;5.13;0.98;;;20.90;99.90;;;;;;2622107;46;20023;31
2023/09/30 11:21:14;;;;;;;8.35;1.40;;;20.80;99.90;;;;;;2602986;54;20053;31
2023/09/30 11:23:55;;;;;;;3.40;0.90;;;20.70;99.90;;;;;;2602770;54;20888;31
2023/09/30 11:26:45;;;;;;;4.93;1.15;;;20.70;99.90;;;;;;2602900;54;20030;31
2023/09/30 11:29:21;;;;;;;6.35;1.10;;;20.70;99.90;;;;;;2603277;54;20037;31
2023/09/30 11:31:57;;;;;;;4.72;0.90;;;20.60;99.90;;;;;;2603431;54;20879;31
2023/09/30 11:34:37;;;;;;;6.40;1.23;;;20.50;99.90;;;;;;2603406;54;20081;31
2023/09/30 11:37:21;;;;;;;4.13;0.80;;;20.50;99.90;;;;;;2603428;54;20882;31
2023/09/30 11:40:11;;;;;;;5.13;1.17;;;20.30;99.90;;;;;;2603339;54;20026;31
2023/09/30 11:42:48;;;;;;;3.30;1.05;;;20.30;99.90;;;;;;2701957;39;20443;31
2023/09/30 11:45:27;;;;;;;4.70;0.93;;;20.20;99.90;;;;;;2701101;39;20501;31
2023/09/30 11:48:07;;;;;;;6.20;1.20;;;20.10;99.90;;;;;;2602634;54;20797;31
2023/09/30 11:50:52;;;;;;;4.68;1.08;;;20.10;99.90;;;;;;2602444;54;20034;31
2023/09/30 11:53:30;;;;;;;3.35;0.90;;;20.10;99.90;;;;;;2622055;46;20034;31
2023/09/30 11:56:10;;;;;;;6.93;1.55;;;20.10;99.90;;;;;;2603592;54;20042;31
2023/09/30 11:58:52;;;;;;;4.13;1.13;;;20.10;99.90;;;;;;2603452;54;20022;31
2023/09/30 12:01:35;;;;;;;8.00;1.35;;;20.20;99.90;;;;;;2602594;54;20936;31
2023/09/30 12:04:12;;;;;;;7.22;1.15;;;20.30;99.90;;;;;;2602591;54;20072;31
2023/09/30 12:06:53;;;;;;;6.72;1.23;;;20.30;99.90;;;;;;2603196;54;20877;31
2023/09/30 12:09:37;;;;;;;11.10;1.63;;;20.40;99.90;;;;;;2603463;54;20022;31
2023/09/30 12:12:15;;;;;;;4.20;1.40;;;20.30;99.90;;;;;;2603058;54;20053;31
2023/09/30 12:14:55;;;;;;;5.75;1.20;;;20.30;99.90;;;;;;2603326;54;20105;31
2023/09/30 12:17:35;;;;;;;6.00;1.02;;;20.10;99.90;;;;;;2603206;54;20038;31
2023/09/30 12:20:14;;;;;;;4.05;0.80;;;20.10;99.90;;;;;;2602735;54;20130;31
2023/09/30 12:22:49;;;;;;;11.30;1.38;;;20.10;99.90;;;;;;2602529;54;20923;31
2023/09/30 12:25:41;;;;;;;;;;;;;;;;;;;;;
2023/09/30 12:28:21;;;;;;;5.70;1.13;;;20.20;99.90;;;;;;2603483;54;20161;31
2023/09/30 12:31:02;;;;;;;5.50;1.05;;;20.10;99.90;;;;;;2606318;46;20025;31
2023/09/30 12:33:41;;;;;;;3.50;1.10;;;20.00;99.90;;;;;;2603444;54;20085;31
2023/09/30 12:36:21;;;;;;;5.30;1.20;;;20.10;99.90;;;;;;2700983;39;21391;31
2023/09/30 12:39:24;;;;;;;6.75;1.20;;;20.10;99.90;;;;;;2603443;54;20030;31
2023/09/30 12:42:08;;;;;;;7.47;1.13;;;20.20;99.90;;;;;;2621568;46;20052;31
2023/09/30 12:44:45;;;;;;;4.97;1.10;;;20.20;99.90;;;;;;2773076;31;20610;31
2023/09/30 12:47:27;;;;;;;4.13;0.70;;;20.20;99.90;;;;;;2602678;54;20100;31
2023/09/30 12:50:15;;;;;;;4.07;0.80;;;20.30;99.90;;;;;;2773938;31;21568;31
2023/09/30 12:52:52;;;;;;;4.03;0.83;;;20.40;99.90;;;;;;2603246;54;20113;31
2023/09/30 12:55:27;;;;;;;3.75;0.88;;;20.40;99.90;;;;;;2621756;46;21020;31
2023/09/30 12:58:02;;;;;;;2.87;1.30;;;20.40;99.90;;;;;;2701766;39;20472;31
2023/09/30 13:00:38;;;;;;;5.15;0.82;;;20.50;99.90;;;;;;2603162;54;20358;31
2023/09/30 13:03:26;;;;;;;4.65;1.15;;;20.50;99.90;;;;;;2621143;46;20918;31
2023/09/30 13:06:05;;;;;;;4.78;0.93;;;20.50;99.90;;;;;;2603159;54;20837;31
2023/09/30 13:08:43;;;;;;;3.80;0.90;;;20.50;99.90;;;;;;2603080;54;20856;31
2023/09/30 13:14:27;;;;;;;3.53;0.77;;;20.40;99.90;;;;;;2602690;54;20611;31
2023/09/30 13:17:12;;;;;;;5.38;0.85;;;20.30;99.90;;;;;;2603353;54;20106;31
2023/09/30 13:19:49;;;;;;;7.10;0.93;;;20.30;99.90;;;;;;2603220;54;20053;31
2023/09/30 13:22:29;;;;;;;8.20;0.95;;;20.20;99.90;;;;;;2782842;31;20639;31
2023/09/30 13:25:08;;;;;;;5.30;1.15;;;20.10;99.90;;;;;;2603008;54;20026;31
2023/09/30 13:27:49;;;;;;;3.43;0.87;;;20.10;99.90;;;;;;2602299;54;20046;31
2023/09/30 13:30:27;;;;;;;3.38;0.80;;;20.10;99.90;;;;;;2602899;54;20748;31
2023/09/30 13:33:08;;;;;;;5.67;1.00;;;20.20;99.90;;;;;;2621619;46;20028;31
2023/09/30 13:35:48;;;;;;;2.47;0.85;;;20.20;99.90;;;;;;2603003;54;20958;31
2023/09/30 13:38:33;;;;;;;2.35;0.70;;;20.20;99.90;;;;;;2602964;54;19982;31
2023/09/30 13:41:12;;;;;;;5.22;0.73;;;20.10;99.90;;;;;;2603119;54;20827;31
2023/09/30 13:43:48;;;;;;;6.20;1.33;;;20.10;99.90;;;;;;2621427;47;20667;31
2023/09/30 13:46:27;;;;;;;7.00;1.45;;;20.00;99.90;;;;;;2701451;39;20552;31
2023/09/30 13:49:10;;;;;;;5.47;1.38;;;19.90;99.90;;;;;;2608931;47;20584;31
2023/09/30 13:51:46;;;;;;;5.32;0.95;;;19.80;99.90;;;;;;2602508;54;21635;31
2023/09/30 13:54:27;;;;;;;4.20;0.95;;;19.70;99.90;;;;;;2603123;54;20030;31
2023/09/30 13:57:03;;;;;;;5.00;1.10;;;19.60;99.90;;;;;;2602754;54;22433;31
2023/09/30 13:59:48;;;;;;;6.60;1.10;;;19.60;99.90;;;;;;2602624;54;20085;31
2023/09/30 14:02:25;;;;;;;6.50;0.88;;;19.50;99.90;;;;;;2621305;47;20033;31
2023/09/30 14:05:04;;;;;;;6.05;0.90;;;19.50;99.90;;;;;;2603119;54;19946;31
2023/09/30 14:07:43;;;;;;;5.20;0.70;;;19.50;99.90;;;;;;2602297;54;20891;31
2023/09/30 14:10:25;;;;;;;6.18;1.15;;;19.40;99.90;;;;;;2602064;54;20042;31
2023/09/30 14:13:00;;;;;;;4.45;1.90;;;19.40;99.90;;;;;;2607860;47;20840;31
2023/09/30 14:15:41;;;;;;;1.15;0.75;;;19.40;99.90;;;;;;2603509;54;20833;31
2023/09/30 14:18:16;;;;;;;6.10;1.13;;;19.30;99.90;;;;;;2602967;54;22414;31
2023/09/30 14:20:58;;;;;;;6.13;1.08;;;19.30;99.90;;;;;;2603704;54;20026;31
2023/09/30 14:23:37;;;;;;;9.55;1.10;;;19.30;99.90;;;;;;2603552;54;20910;31
2023/09/30 14:26:19;;;;;;;3.67;0.90;;;19.30;99.90;;;;;;2701313;39;20725;31
2023/09/30 14:28:56;;;;;;;6.20;0.90;;;19.30;99.90;;;;;;2602892;54;20046;31
2023/09/30 14:31:33;;;;;;;3.05;0.70;;;19.30;99.90;;;;;;2603120;54;20850;31